Annandale, Virginia
Current Conditions -  °F | °C
As of 5:58 PM on Thursday 27 Nov 2014 (Local Time) from KDAA Reporting Station
Overcast Overcast  
Wind Chill: 35°   Ceiling: 7000
Heat Index: 40°   Visibility: 10mi
Dew Point: 29°   Wind: 8mph
Humidity: 63%   Direction: 300°WNW
Pressure: 30.13"   Gusts: NA
Location:  38.83°N, 77.19°W
Report Text: KDAA 272258Z AUTO 30007KT 10SM OVC070 05/M02 A3013 RMK AO2 UPB2200E2201RAB2208E2217DZB2201E2208 SLP207 P0000 T00461018
Loading
Personal Weather Stations






























Interactive Weather Map New forecast layout! Learn more

10-Day Weather Forecast

Advertisements
Track Severe Weather on mobile